Time;durP1;ratioP1;P1;durP2;ratioP2;P2;SDS_P1;SDS_P2;PMS_P1;PMS_P2;Temp;Humidity;BMP_temperature;BMP_pressure;BME280_temperature;BME280_humidity;BME280_pressure;Samples;Min_cycle;Max_cycle;Signal;HPM_P1;HPM_P2
2023/10/04 00:00:53;;;;;;;23.93;14.20;;;;;;;-143.21;65.69;72841.69;5131381;27;20590;-80
2023/10/04 00:03:21;;;;;;;27.50;14.83;;;;;;;-143.21;66.11;72855.56;5130405;27;20282;-81
2023/10/04 00:05:48;;;;;;;24.90;14.93;;;;;;;-143.21;66.49;72853.56;5130537;27;20376;-80
2023/10/04 00:08:15;;;;;;;28.73;14.33;;;;;;;-143.21;66.05;72859.53;5131665;27;20211;-80
2023/10/04 00:10:44;;;;;;;31.13;14.63;;;;;;;-143.21;66.21;72855.56;5131770;27;20200;-79
2023/10/04 00:13:13;;;;;;;27.97;15.03;;;;;;;-143.21;66.53;72859.53;5130474;27;20244;-79
2023/10/04 00:15:40;;;;;;;28.03;14.97;;;;;;;-143.21;66.47;72849.59;5130887;27;20195;-79
2023/10/04 00:18:07;;;;;;;23.47;13.60;;;;;;;-143.21;66.24;72849.59;5131058;27;20192;-80
2023/10/04 00:20:34;;;;;;;26.93;14.77;;;;;;;-143.21;66.16;72855.56;5152446;27;20241;-79
2023/10/04 00:23:04;;;;;;;26.37;14.93;;;;;;;-143.21;66.38;72857.53;5133851;27;20252;-79
2023/10/04 00:25:33;;;;;;;28.00;14.83;;;;;;;-143.21;66.48;72865.47;5132254;27;20210;-78
2023/10/04 00:28:02;;;;;;;25.57;14.87;;;;;;;-143.21;66.64;72867.47;5130684;27;20302;-80
2023/10/04 00:30:31;;;;;;;27.03;14.57;;;;;;;-143.21;66.79;72869.44;5132445;27;20916;-82
2023/10/04 00:33:02;;;;;;;30.50;15.13;;;;;;;-143.21;66.69;72871.44;5131982;27;20320;-81
2023/10/04 00:35:29;;;;;;;29.43;14.80;;;;;;;-143.21;66.73;72871.44;5130983;27;20211;-81
2023/10/04 00:38:00;;;;;;;25.53;14.27;;;;;;;-143.21;66.69;72863.50;5130679;27;20199;-81
2023/10/04 00:40:28;;;;;;;26.53;14.93;;;;;;;-143.21;66.64;72871.44;5131248;27;20589;-81
2023/10/04 00:42:56;;;;;;;25.27;14.40;;;;;;;-143.21;66.33;72863.50;5153136;27;20191;-81
2023/10/04 00:45:25;;;;;;;24.07;13.53;;;;;;;-143.21;66.21;72861.50;5131260;27;20200;-81
2023/10/04 00:47:56;;;;;;;25.67;14.30;;;;;;;-143.21;66.18;72859.53;5130827;27;20231;-81
2023/10/04 00:50:26;;;;;;;37.83;16.43;;;;;;;-143.21;66.61;72879.38;5129696;27;20231;-81
2023/10/04 00:53:00;;;;;;;29.87;15.27;;;;;;;-143.21;66.93;72883.31;5130865;27;20302;-81
2023/10/04 00:55:29;;;;;;;21.73;12.97;;;;;;;-143.21;66.40;72881.34;5131827;28;20256;-81
2023/10/04 00:57:58;;;;;;;24.50;14.97;;;;;;;-143.21;66.71;72883.31;5130883;27;20195;-81
2023/10/04 01:00:26;;;;;;;29.27;15.63;;;;;;;-143.21;66.90;72889.28;5139868;27;20206;-80
2023/10/04 01:02:53;;;;;;;30.37;16.07;;;;;;;-143.21;67.40;72899.19;5144016;27;21137;-80
2023/10/04 01:05:23;;;;;;;31.90;16.13;;;;;;;-143.21;67.56;72899.19;5131366;28;20222;-81
2023/10/04 01:07:50;;;;;;;29.57;16.17;;;;;;;-143.21;67.50;72907.13;5135057;27;20307;-81
2023/10/04 01:10:20;;;;;;;23.43;14.67;;;;;;;-143.21;67.40;72903.16;5146186;27;20248;-81
2023/10/04 01:12:47;;;;;;;28.83;15.07;;;;;;;-143.21;66.98;72903.16;5144672;27;20256;-80
2023/10/04 01:17:57;;;;;;;27.87;14.83;;;;;;;-143.21;67.25;72913.09;5132142;27;20199;-79
2023/10/04 01:20:24;;;;;;;26.43;15.17;;;;;;;-143.21;67.54;72923.00;5134869;27;20253;-78
2023/10/04 01:22:52;;;;;;;28.40;15.23;;;;;;;-143.21;67.37;72924.97;5134246;27;20256;-81
2023/10/04 01:25:20;;;;;;;24.83;14.93;;;;;;;-143.21;67.61;72923.00;5134374;27;20210;-83
2023/10/04 01:27:47;;;;;;;25.70;14.33;;;;;;;-143.21;67.54;72921.00;5134658;27;20284;-83
2023/10/04 01:30:16;;;;;;;34.87;15.33;;;;;;;-143.21;67.77;72932.91;5135488;27;20793;-82
2023/10/04 01:32:43;;;;;;;26.07;13.90;;;;;;;-143.21;67.68;72926.97;5135069;27;20234;-82
2023/10/04 01:35:11;;;;;;;30.47;14.00;;;;;;;-143.21;67.35;72926.97;5133522;27;20205;-81
2023/10/04 01:37:39;;;;;;;25.70;13.93;;;;;;;-143.21;67.27;72930.94;5133926;27;20206;-81
2023/10/04 01:40:12;;;;;;;23.10;14.10;;;;;;;-143.21;67.57;72940.84;5134961;27;20330;-82
2023/10/04 01:42:41;;;;;;;31.70;13.77;;;;;;;-143.21;67.75;72942.84;5134267;27;20282;-81
2023/10/04 01:45:11;;;;;;;31.23;13.63;;;;;;;-143.21;67.76;72942.84;5145941;27;20198;-81
2023/10/04 01:47:39;;;;;;;28.27;13.60;;;;;;;-143.21;67.28;72940.84;5143946;27;20200;-81
2023/10/04 01:50:09;;;;;;;22.83;13.63;;;;;;;-143.21;67.78;72948.78;5134359;27;20239;-81
2023/10/04 01:52:36;;;;;;;21.20;13.00;;;;;;;-143.21;67.82;72952.75;5134948;27;20195;-80
2023/10/04 01:55:05;;;;;;;25.53;14.03;;;;;;;-143.21;67.84;72950.78;5134751;27;20199;-79
2023/10/04 01:57:34;;;;;;;22.47;13.10;;;;;;;-143.21;68.21;72956.72;5134476;27;20195;-80
2023/10/04 02:00:01;;;;;;;26.90;13.53;;;;;;;-143.21;68.09;72954.72;5133346;27;20227;-79
2023/10/04 02:02:28;;;;;;;31.97;15.23;;;;;;;-143.21;68.00;72944.81;5133936;27;20199;-79
2023/10/04 02:04:54;;;;;;;26.50;13.60;;;;;;;-143.21;68.06;72944.81;5135077;27;20207;-79
2023/10/04 02:07:23;;;;;;;28.63;13.90;;;;;;;-143.21;68.27;72954.72;5133703;27;20199;-79
2023/10/04 02:09:51;;;;;;;23.90;14.80;;;;;;;-143.21;68.61;72964.66;5132905;27;20291;-79
2023/10/04 02:12:20;;;;;;;22.93;13.83;;;;;;;-143.21;68.72;72968.63;5132642;27;20680;-79
2023/10/04 02:14:53;;;;;;;27.27;13.10;;;;;;;-143.21;68.59;72974.56;5134198;27;20192;-78
2023/10/04 02:17:22;;;;;;;28.07;14.60;;;;;;;-143.21;68.72;72974.56;5143864;27;20228;-79
2023/10/04 02:19:49;;;;;;;23.80;14.60;;;;;;;-143.21;68.55;72970.59;5132149;27;20233;-79
2023/10/04 02:22:18;;;;;;;23.70;14.20;;;;;;;-143.21;68.42;72964.66;5132678;27;20199;-79
2023/10/04 02:24:45;;;;;;;25.47;14.00;;;;;;;-143.21;67.97;72956.72;5133163;27;21432;-79
2023/10/04 02:27:12;;;;;;;27.37;14.13;;;;;;;-143.21;68.26;72970.59;5133769;27;20195;-79
2023/10/04 02:29:39;;;;;;;25.43;14.10;;;;;;;-143.21;68.34;72962.66;5132111;27;20295;-79
2023/10/04 02:32:09;;;;;;;24.77;13.87;;;;;;;-143.21;68.34;72970.59;5132679;27;20236;-79
2023/10/04 02:34:36;;;;;;;26.30;14.30;;;;;;;-143.21;68.45;72972.59;5133965;27;21191;-79
2023/10/04 02:37:06;;;;;;;25.57;14.13;;;;;;;-143.21;68.60;72978.53;5154581;27;20561;-79
2023/10/04 02:39:33;;;;;;;29.87;15.27;;;;;;;-143.21;68.71;72978.53;5150430;27;20223;-79
2023/10/04 02:42:00;;;;;;;28.33;15.70;;;;;;;-143.21;68.73;72984.50;5137937;27;20196;-79
2023/10/04 02:44:27;;;;;;;29.50;15.73;;;;;;;-143.21;68.84;72986.47;5137815;27;20668;-78
2023/10/04 02:46:54;;;;;;;30.77;15.20;;;;;;;-143.21;68.80;72980.53;5150238;27;20221;-80
2023/10/04 02:49:23;;;;;;;24.77;15.00;;;;;;;-143.21;68.40;72980.53;5152775;27;20258;-78
2023/10/04 02:51:50;;;;;;;25.33;15.70;;;;;;;-143.21;68.68;72994.41;5135076;27;20219;-79
2023/10/04 02:54:17;;;;;;;30.67;16.03;;;;;;;-143.21;68.77;72992.41;5139701;27;20203;-80
2023/10/04 02:56:46;;;;;;;34.30;16.53;;;;;;;-143.21;69.15;73002.34;5147012;27;20600;-79
2023/10/04 02:59:17;;;;;;;31.93;17.20;;;;;;;-143.21;69.20;72998.38;5133585;27;20320;-80
2023/10/04 03:01:44;;;;;;;32.47;18.10;;;;;;;-143.21;68.74;72982.50;5149708;27;20247;-80
2023/10/04 03:04:14;;;;;;;27.90;17.07;;;;;;;-143.21;68.82;72986.47;5148651;27;20677;-79
2023/10/04 03:06:42;;;;;;;27.63;17.23;;;;;;;-143.21;68.79;72986.47;5142929;27;20282;-80
2023/10/04 03:09:09;;;;;;;31.30;17.90;;;;;;;-143.21;69.13;72988.47;5131842;27;20254;-81
2023/10/04 03:11:37;;;;;;;30.17;16.60;;;;;;;-143.21;68.77;72998.38;5133567;27;20621;-81
2023/10/04 03:14:07;;;;;;;30.47;16.77;;;;;;;-143.21;69.09;73002.34;5133385;27;20725;-80
2023/10/04 03:16:34;;;;;;;41.47;17.80;;;;;;;-143.21;69.13;73006.31;5131625;27;20331;-82
2023/10/04 03:19:02;;;;;;;30.70;17.00;;;;;;;-143.21;69.14;73002.34;5131746;27;20585;-80
2023/10/04 03:21:30;;;;;;;29.70;16.80;;;;;;;-143.21;69.59;73006.31;5132774;27;20191;-81
2023/10/04 03:24:00;;;;;;;33.27;17.20;;;;;;;-143.21;69.24;73006.31;5149530;27;20692;-81
2023/10/04 03:26:29;;;;;;;30.90;17.47;;;;;;;-143.21;69.33;73016.22;5135687;27;20239;-81
2023/10/04 03:28:56;;;;;;;34.93;16.80;;;;;;;-143.21;69.61;73016.22;5131250;27;20635;-80
2023/10/04 03:31:23;;;;;;;30.37;16.13;;;;;;;-143.21;69.47;73024.16;5126011;27;20690;-79
2023/10/04 03:33:53;;;;;;;38.67;15.40;;;;;;;-143.21;69.59;73030.09;5122309;27;20304;-79
2023/10/04 03:36:19;;;;;;;28.23;15.27;;;;;;;-143.21;70.02;73032.09;5130345;27;20581;-80
2023/10/04 03:38:49;;;;;;;31.93;15.63;;;;;;;-143.21;70.10;73024.16;5140232;27;20201;-78
2023/10/04 03:41:19;;;;;;;29.17;15.00;;;;;;;-143.21;69.26;73024.16;5144872;27;20210;-78
2023/10/04 03:43:46;;;;;;;30.37;15.47;;;;;;;-143.21;69.55;73022.19;5131979;27;20215;-79
2023/10/04 03:46:18;;;;;;;28.80;15.23;;;;;;;-143.21;69.63;73024.16;5131965;27;20199;-80
2023/10/04 03:48:45;;;;;;;35.03;15.97;;;;;;;-143.21;69.63;73034.06;5130881;27;20239;-80
2023/10/04 03:51:13;;;;;;;38.97;15.10;;;;;;;-143.21;69.85;73028.13;5130671;27;20223;-80
2023/10/04 03:53:42;;;;;;;34.40;15.60;;;;;;;-143.21;69.54;73034.06;5131306;27;20219;-79
2023/10/04 03:56:10;;;;;;;25.93;15.63;;;;;;;-143.21;69.70;73036.06;5132650;27;20237;-80
2023/10/04 03:58:40;;;;;;;25.17;14.63;;;;;;;-143.21;69.86;73036.06;5130748;27;20210;-80
2023/10/04 04:01:08;;;;;;;30.87;15.47;;;;;;;-143.21;69.73;73038.03;5141938;27;20621;-83
2023/10/04 04:03:35;;;;;;;31.67;16.70;;;;;;;-143.21;69.57;73034.06;5143350;27;20199;-80
2023/10/04 04:06:02;;;;;;;37.53;18.13;;;;;;;-143.21;69.54;73036.06;5131832;27;20187;-80
2023/10/04 04:08:29;;;;;;;43.00;18.93;;;;;;;-143.21;69.56;73034.06;5131800;27;20203;-80
2023/10/04 04:10:56;;;;;;;33.60;19.17;;;;;;;-143.21;69.60;73030.09;5130698;27;20599;-80
2023/10/04 04:13:23;;;;;;;31.80;18.13;;;;;;;-143.21;69.41;73028.13;5130802;27;20214;-80
2023/10/04 04:15:52;;;;;;;42.43;18.27;;;;;;;-143.21;69.39;73032.09;5131209;27;20214;-80
2023/10/04 04:18:21;;;;;;;33.23;18.63;;;;;;;-143.21;69.65;73038.03;5131954;27;20236;-81
2023/10/04 04:20:48;;;;;;;41.07;18.33;;;;;;;-143.21;69.44;73038.03;5141740;27;20196;-80
2023/10/04 04:23:15;;;;;;;39.23;18.00;;;;;;;-143.21;69.50;73044.00;5126268;27;20196;-80
2023/10/04 04:25:43;;;;;;;37.80;17.70;;;;;;;-143.21;69.82;73049.94;5130975;27;20203;-80
2023/10/04 04:28:12;;;;;;;35.13;18.37;;;;;;;-143.21;69.68;73053.91;5131753;28;20191;-80
2023/10/04 04:30:39;;;;;;;36.60;18.13;;;;;;;-143.21;70.10;73057.88;5131740;27;20226;-81
2023/10/04 04:33:08;;;;;;;35.03;18.50;;;;;;;-143.21;69.95;73061.84;5130913;27;20196;-80
2023/10/04 04:35:47;;;;;;;36.10;19.13;;;;;;;-143.21;70.15;73059.88;5130245;28;20215;-80
2023/10/04 04:38:19;;;;;;;37.87;19.00;;;;;;;-143.21;70.37;73063.84;5130749;27;20259;-80
2023/10/04 04:40:48;;;;;;;36.20;19.53;;;;;;;-143.21;70.76;73071.75;5131933;27;20218;-80
2023/10/04 04:43:26;;;;;;;32.17;19.93;;;;;;;-143.21;70.65;73071.75;5135740;27;20199;-81
2023/10/04 04:45:56;;;;;;;41.67;21.30;;;;;;;-143.21;70.81;73069.78;5134872;27;20207;-81
2023/10/04 04:48:26;;;;;;;43.13;19.80;;;;;;;-143.21;70.88;73071.75;5135457;27;20188;-80
2023/10/04 04:50:54;;;;;;;39.47;19.60;;;;;;;-143.21;70.81;73073.75;5134711;27;20250;-85
2023/10/04 04:53:22;;;;;;;34.83;15.37;;;;;;;-143.21;70.83;73069.78;5135446;27;20195;-77
2023/10/04 04:55:50;;;;;;;32.57;17.97;;;;;;;-143.21;70.51;73061.84;5135123;27;20203;-77
2023/10/04 04:58:18;;;;;;;35.27;18.13;;;;;;;-143.21;70.49;73055.91;5147013;27;20199;-77
2023/10/04 05:00:49;;;;;;;31.27;17.73;;;;;;;-143.21;70.72;73065.81;5145125;27;20346;-78
2023/10/04 05:03:16;;;;;;;39.20;18.13;;;;;;;-143.21;70.80;73059.88;5133785;27;20214;-78
2023/10/04 05:05:45;;;;;;;37.03;17.27;;;;;;;-143.21;70.31;73063.84;5135191;27;20197;-78
2023/10/04 05:08:12;;;;;;;33.70;15.73;;;;;;;-143.21;70.75;73069.78;5134495;27;20726;-78
2023/10/04 05:10:40;;;;;;;34.57;16.93;;;;;;;-143.21;70.36;73065.81;5134182;27;20238;-79
2023/10/04 05:13:13;;;;;;;46.77;19.90;;;;;;;-143.21;70.68;73055.91;5136686;27;20653;-79
2023/10/04 05:15:42;;;;;;;42.37;18.70;;;;;;;-143.21;70.95;73067.78;5152672;27;20195;-79
2023/10/04 05:18:11;;;;;;;43.67;18.87;;;;;;;-143.21;70.84;73063.84;5153829;27;20202;-78
2023/10/04 05:20:41;;;;;;;34.93;18.43;;;;;;;-143.21;70.23;73053.91;5136066;27;20200;-78
2023/10/04 05:23:10;;;;;;;40.00;18.93;;;;;;;-143.21;70.53;73049.94;5133639;27;20213;-79
2023/10/04 05:25:38;;;;;;;32.60;17.73;;;;;;;-143.21;70.66;73051.94;5134121;27;20207;-80
2023/10/04 05:28:08;;;;;;;52.40;23.47;;;;;;;-143.21;70.41;73044.00;5135044;27;20191;-79
2023/10/04 05:30:43;;;;;;;48.63;22.53;;;;;;;-143.21;70.56;73042.00;5147033;27;20222;-79
2023/10/04 05:33:10;;;;;;;34.80;18.73;;;;;;;-143.21;70.52;73045.97;5131466;27;20201;-78
2023/10/04 05:35:38;;;;;;;33.97;16.83;;;;;;;-143.21;70.45;73038.03;5133464;27;20260;-78
2023/10/04 05:38:05;;;;;;;32.93;16.40;;;;;;;-143.21;70.26;73038.03;5132247;27;20207;-79
2023/10/04 05:40:36;;;;;;;28.50;16.07;;;;;;;-143.21;69.87;73030.09;5134249;27;20674;-79
2023/10/04 05:43:04;;;;;;;28.30;15.30;;;;;;;-143.21;69.64;73030.09;5133606;27;20219;-78
2023/10/04 05:45:31;;;;;;;29.50;15.23;;;;;;;-143.21;69.24;73014.25;5131988;27;20231;-79
2023/10/04 05:47:59;;;;;;;32.40;15.67;;;;;;;-143.21;69.41;73024.16;5135421;27;20199;-79
2023/10/04 05:50:27;;;;;;;27.63;16.47;;;;;;;-143.21;69.25;73020.19;5133600;27;20231;-79
2023/10/04 05:52:57;;;;;;;36.00;17.00;;;;;;;-143.21;69.49;73014.25;5151254;27;20195;-78
2023/10/04 05:55:23;;;;;;;41.40;16.43;;;;;;;-143.21;69.53;73010.28;5136938;27;20203;-79
2023/10/04 05:57:52;;;;;;;33.97;16.13;;;;;;;-143.21;69.26;73008.28;5133859;27;20202;-79
2023/10/04 06:00:25;;;;;;;33.23;16.40;;;;;;;-143.21;68.93;73004.31;5134512;27;20207;-79
2023/10/04 06:02:54;;;;;;;28.73;16.83;;;;;;;-143.21;68.78;72992.41;5155014;27;20194;-80
2023/10/04 06:05:22;;;;;;;32.70;15.53;;;;;;;-143.21;68.66;72982.50;5133262;27;20199;-80
2023/10/04 06:07:50;;;;;;;29.60;16.33;;;;;;;-143.21;68.67;72984.50;5129763;27;20305;-81
2023/10/04 06:10:18;;;;;;;33.03;17.17;;;;;;;-143.21;68.65;72978.53;5132170;27;20223;-78
2023/10/04 06:12:46;;;;;;;32.37;16.40;;;;;;;-143.21;68.68;72978.53;5133128;27;21037;-79
2023/10/04 06:15:16;;;;;;;32.73;17.37;;;;;;;-143.21;68.19;72972.59;5154074;27;20247;-80
2023/10/04 06:17:44;;;;;;;35.23;17.13;;;;;;;-143.21;68.13;72972.59;5143901;27;20257;-79
2023/10/04 06:20:28;;;;;;;35.67;17.40;;;;;;;-143.21;68.19;72966.63;5141058;27;20218;-80
2023/10/04 06:22:56;;;;;;;43.80;17.23;;;;;;;-143.21;68.10;72962.66;5132730;27;20214;-79
2023/10/04 06:25:25;;;;;;;33.50;17.70;;;;;;;-143.21;67.83;72952.75;5134484;27;21946;-79
2023/10/04 06:27:53;;;;;;;36.10;18.70;;;;;;;-143.21;67.68;72948.78;5153855;27;20194;-79
2023/10/04 06:30:23;;;;;;;30.27;16.53;;;;;;;-143.21;67.53;72946.81;5135994;27;20251;-79
2023/10/04 06:32:52;;;;;;;35.07;17.77;;;;;;;-143.21;67.51;72942.84;5133253;27;20203;-80
2023/10/04 06:35:23;;;;;;;38.47;18.03;;;;;;;-143.21;66.62;72930.94;5133082;27;20200;-80
2023/10/04 06:37:50;;;;;;;32.27;17.43;;;;;;;-143.21;66.76;72926.97;5133846;27;20646;-79
2023/10/04 06:40:19;;;;;;;36.57;17.47;;;;;;;-143.21;66.88;72928.94;5133312;27;20279;-79
2023/10/04 06:42:46;;;;;;;31.93;16.40;;;;;;;-143.21;67.03;72928.94;5144290;27;20203;-80
2023/10/04 06:45:14;;;;;;;35.70;17.03;;;;;;;-143.21;66.74;72921.00;5142905;27;20203;-79
2023/10/04 06:47:44;;;;;;;30.57;17.50;;;;;;;-143.21;66.57;72921.00;5131801;27;20669;-78
2023/10/04 06:50:14;;;;;;;32.23;16.83;;;;;;;-143.21;66.48;72911.09;5153736;27;20348;-78
2023/10/04 06:52:43;;;;;;;32.07;16.83;;;;;;;-143.21;65.58;72911.09;5148124;27;20202;-78
2023/10/04 06:55:11;;;;;;;36.20;15.97;;;;;;;-143.21;65.43;72893.25;5148347;27;20333;-77
2023/10/04 06:57:39;;;;;;;34.97;17.00;;;;;;;-143.21;65.52;72893.25;5145045;27;20237;-79
2023/10/04 07:00:13;;;;;;;32.03;16.63;;;;;;;-143.21;65.54;72893.25;5131721;27;20190;-79
2023/10/04 07:02:43;;;;;;;35.37;17.63;;;;;;;-143.21;65.44;72883.31;5132167;27;20195;-79
2023/10/04 07:05:10;;;;;;;33.10;15.63;;;;;;;-143.21;64.75;72889.28;5144116;27;20661;-78
2023/10/04 07:07:37;;;;;;;27.77;13.80;;;;;;;-143.21;64.22;72883.31;5148124;27;20195;-78
2023/10/04 07:10:07;;;;;;;26.60;14.53;;;;;;;-143.21;63.87;72873.41;5146210;27;20227;-78
2023/10/04 07:12:34;;;;;;;27.50;14.67;;;;;;;-143.21;64.44;72873.41;5132587;27;20219;-78
2023/10/04 07:15:03;;;;;;;35.13;15.60;;;;;;;-143.21;64.24;72863.50;5147055;27;20985;-79
2023/10/04 07:17:33;;;;;;;27.97;16.10;;;;;;;-143.21;64.35;72851.59;5137324;27;20199;-79
2023/10/04 07:20:06;;;;;;;33.57;17.23;;;;;;;-143.21;64.41;72847.63;5130960;27;20206;-80
2023/10/04 07:22:33;;;;;;;35.87;16.77;;;;;;;-143.21;64.58;72843.66;5131126;27;20206;-78
2023/10/04 07:25:01;;;;;;;30.50;15.97;;;;;;;-143.21;64.28;72843.66;5111589;28;20200;-79
2023/10/04 07:27:28;;;;;;;28.63;16.10;;;;;;;-143.21;64.27;72837.72;5132585;27;20203;-87
2023/10/04 07:29:54;;;;;;;30.70;16.73;;;;;;;-143.21;64.09;72819.84;5130808;27;20226;-88
2023/10/04 07:32:22;;;;;;;31.47;16.07;;;;;;;-143.21;63.93;72796.06;5132103;27;20238;-86
2023/10/04 07:34:49;;;;;;;30.00;16.37;;;;;;;-143.21;63.59;72790.09;5133004;27;20278;-87
2023/10/04 07:37:17;;;;;;;37.53;15.87;;;;;;;-143.21;62.72;72772.25;5132197;27;20275;-86
2023/10/04 07:39:44;;;;;;;32.07;15.03;;;;;;;-143.21;62.98;72758.38;5143016;27;20205;-86
2023/10/04 07:42:11;;;;;;;33.03;15.50;;;;;;;-143.21;63.12;72762.34;5148080;27;20206;-86
2023/10/04 07:44:38;;;;;;;35.80;14.73;;;;;;;-143.21;62.37;72744.50;5150075;27;20306;-85
2023/10/04 07:47:05;;;;;;;30.20;15.53;;;;;;;-143.21;61.40;72732.59;5134876;27;20214;-86
2023/10/04 07:49:33;;;;;;;35.63;15.87;;;;;;;-143.21;60.99;72722.66;5134711;27;20233;-88
2023/10/04 07:52:00;;;;;;;31.30;15.57;;;;;;;-143.21;60.70;72714.72;5131378;27;20230;-88
2023/10/04 07:54:28;;;;;;;30.90;15.90;;;;;;;-143.21;60.49;72708.78;5131589;27;20206;-88
2023/10/04 07:56:55;;;;;;;32.57;15.57;;;;;;;-143.21;60.71;72698.88;5132677;27;20586;-89
2023/10/04 07:59:23;;;;;;;26.70;14.97;;;;;;;-143.21;60.38;72686.97;5132582;27;20614;-89
2023/10/04 08:01:50;;;;;;;26.03;14.87;;;;;;;-143.21;59.61;72671.09;5132568;27;20204;-90
2023/10/04 08:04:17;;;;;;;27.63;14.27;;;;;;;-143.21;59.12;72665.16;5132584;27;20744;-91
2023/10/04 08:06:49;;;;;;;28.20;14.37;;;;;;;-143.21;59.28;72657.22;5133763;27;20195;-88
2023/10/04 08:09:16;;;;;;;27.13;14.20;;;;;;;-143.21;59.16;72639.38;5132641;27;20187;-83
2023/10/04 08:11:45;;;;;;;33.40;14.77;;;;;;;-143.21;58.80;72627.47;5130776;27;20553;-83
2023/10/04 08:14:11;;;;;;;29.83;15.33;;;;;;;-143.21;58.82;72605.66;5130380;27;20211;-83
2023/10/04 08:16:38;;;;;;;27.60;14.53;;;;;;;-143.21;58.25;72595.75;5129946;27;20218;-80
2023/10/04 08:19:06;;;;;;;31.27;15.23;;;;;;;-143.21;57.76;72587.81;5131430;27;20199;-83
2023/10/04 08:21:37;;;;;;;27.57;14.30;;;;;;;-143.21;57.71;72562.03;5132762;27;20230;-86
2023/10/04 08:24:04;;;;;;;28.70;13.90;;;;;;;-143.21;57.74;72542.19;5131482;27;20286;-83
2023/10/04 08:26:33;;;;;;;29.43;14.50;;;;;;;-143.21;57.40;72516.41;5136460;27;20263;-84
2023/10/04 08:29:05;;;;;;;29.53;14.60;;;;;;;-143.21;56.82;72488.63;5148294;27;21151;-85
2023/10/04 08:31:33;;;;;;;26.13;14.43;;;;;;;-143.21;56.05;72460.88;5127262;27;20211;-83
2023/10/04 08:34:18;;;;;;;33.03;15.60;;;;;;;-143.21;54.97;72431.13;5129984;27;20230;-84
2023/10/04 08:36:45;;;;;;;29.83;15.00;;;;;;;-143.21;54.94;72415.25;5131555;27;20570;-84
2023/10/04 08:39:13;;;;;;;27.93;14.73;;;;;;;-143.21;54.56;72389.47;5131186;27;20204;-86
2023/10/04 08:41:40;;;;;;;32.72;14.80;;;;;;;-143.21;53.31;72365.69;5141461;27;20661;-84
2023/10/04 08:44:08;;;;;;;29.15;15.07;;;;;;;-143.21;52.70;72333.94;5129311;27;20234;-83
2023/10/04 08:46:51;;;;;;;;;;;;;;;;;;;;;
2023/10/04 08:49:33;;;;;;;31.08;14.68;;;;;;;-143.21;51.54;72268.50;5130060;27;20191;-83
2023/10/04 08:52:23;;;;;;;26.35;13.95;;;;;;;-143.21;50.38;72228.84;5130435;27;20219;-83
2023/10/04 08:55:26;;;;;;;29.30;14.65;;;;;;;-143.21;50.27;72193.16;5126763;27;20199;-83
2023/10/04 08:57:59;;;;;;;33.08;13.93;;;;;;;-143.21;49.08;72149.53;5117311;27;20290;-82
2023/10/04 09:00:29;;;;;;;30.75;14.48;;;;;;;-143.21;48.28;72125.72;5130884;27;20673;-83
2023/10/04 09:02:57;;;;;;;25.88;13.88;;;;;;;-143.21;47.66;72090.03;5129409;27;20192;-84
2023/10/04 09:05:47;;;;;;;26.80;12.98;;;;;;;-143.21;47.39;72054.34;5131901;27;20273;-84
2023/10/04 09:08:19;;;;;;;30.83;13.60;;;;;;;-143.21;45.85;72014.69;5129180;27;21068;-85
2023/10/04 09:10:46;;;;;;;30.13;14.02;;;;;;;-143.21;45.72;71990.88;5130507;27;20239;-85
2023/10/04 09:13:13;;;;;;;34.17;13.40;;;;;;;-143.21;45.24;71969.06;5129363;27;20218;-84
2023/10/04 09:15:41;;;;;;;28.30;12.73;;;;;;;-143.21;45.01;71931.38;5129923;27;21201;-84
2023/10/04 09:18:09;;;;;;;22.25;12.00;;;;;;;-143.21;44.69;71895.69;5128587;27;20203;-85
2023/10/04 09:20:36;;;;;;;28.48;13.27;;;;;;;-143.21;42.88;71862.00;5132048;27;20243;-85
2023/10/04 09:23:20;;;;;;;25.63;13.73;;;;;;;-143.21;42.70;71826.28;5128890;27;20196;-85
2023/10/04 09:25:46;;;;;;;20.92;12.68;;;;;;;-143.21;43.55;71782.69;5129421;27;20199;-85
2023/10/04 09:28:13;;;;;;;24.58;13.05;;;;;;;-143.21;42.35;71737.06;5130169;27;20227;-84
2023/10/04 09:30:42;;;;;;;26.77;12.60;;;;;;;-143.21;41.34;71703.34;5133105;27;20231;-86
2023/10/04 09:33:23;;;;;;;25.48;12.35;;;;;;;-143.21;40.45;71667.66;5133101;27;20196;-85
2023/10/04 09:35:51;;;;;;;21.42;12.40;;;;;;;-143.21;39.96;71631.97;5129067;27;20215;-86
2023/10/04 09:38:20;;;;;;;27.52;12.90;;;;;;;-143.21;39.15;71584.41;5139816;27;20202;-85
2023/10/04 09:40:53;;;;;;;22.95;11.95;;;;;;;-143.21;38.76;71538.78;5132162;27;20221;-85
2023/10/04 09:43:35;;;;;;;21.20;11.38;;;;;;;-143.21;38.92;71497.16;5129315;27;20210;-85
2023/10/04 09:46:04;;;;;;;25.83;12.27;;;;;;;-143.21;38.10;71453.53;5131843;27;20199;-85
2023/10/04 09:48:37;;;;;;;29.70;12.50;;;;;;;-143.21;36.99;71407.94;5132299;27;20207;-85
2023/10/04 09:51:05;;;;;;;26.88;11.98;;;;;;;-143.21;36.47;71376.22;5132475;27;20227;-85
2023/10/04 09:53:38;;;;;;;27.15;11.30;;;;;;;-143.21;36.12;71344.50;5136810;27;20203;-86
2023/10/04 09:56:11;;;;;;;22.55;10.85;;;;;;;-143.21;35.92;71308.81;5133006;27;20233;-85
2023/10/04 09:58:48;;;;;;;23.58;11.35;;;;;;;-143.21;34.62;71292.94;5134609;27;20613;-85
2023/10/04 10:01:19;;;;;;;25.25;11.55;;;;;;;-143.21;35.16;71261.22;5132177;27;20620;-85
2023/10/04 10:03:51;;;;;;;25.00;11.77;;;;;;;-143.21;33.96;71235.44;5132687;27;20646;-85
2023/10/04 10:06:22;;;;;;;15.05;9.77;;;;;;;-143.21;34.21;71195.81;5132420;27;20274;-85
2023/10/04 10:08:54;;;;;;;23.00;11.27;;;;;;;-143.21;32.67;71187.88;5131812;27;20208;-85
2023/10/04 10:11:22;;;;;;;24.27;11.57;;;;;;;-143.21;32.71;71158.13;5128900;27;20242;-85
2023/10/04 10:13:50;;;;;;;23.95;10.68;;;;;;;-143.21;32.32;71124.44;5128416;27;20683;-85
2023/10/04 10:16:20;;;;;;;21.55;10.25;;;;;;;-143.21;32.30;71106.59;5135311;27;20200;-86
2023/10/04 10:18:48;;;;;;;19.08;9.43;;;;;;;-143.21;32.65;71076.84;5132016;27;20661;-84
2023/10/04 10:21:15;;;;;;;19.08;9.10;;;;;;;-143.21;32.41;71037.22;5134561;27;20203;-78
2023/10/04 10:24:02;;;;;;;18.08;9.73;;;;;;;-143.21;30.39;70993.59;5134612;27;20759;-79
2023/10/04 10:26:33;;;;;;;15.45;9.35;;;;;;;-143.21;31.61;70973.78;5129500;27;20202;-79
2023/10/04 10:29:03;;;;;;;15.30;8.73;;;;;;;-143.21;31.29;70944.03;5134754;27;20678;-79
2023/10/04 10:31:32;;;;;;;16.60;9.27;;;;;;;-143.21;30.88;70910.34;5134367;27;20223;-79
2023/10/04 10:34:00;;;;;;;15.30;9.18;;;;;;;-143.21;31.04;70900.41;5130287;27;20191;-79
2023/10/04 10:36:28;;;;;;;16.45;9.25;;;;;;;-143.21;29.90;70906.38;5134390;27;20210;-85
2023/10/04 10:38:55;;;;;;;18.25;9.30;;;;;;;-143.21;30.34;70858.78;5138342;27;20207;-84
2023/10/04 10:45:27;;;;;;;13.65;8.45;;;;;;;-143.21;29.03;70765.63;5088191;27;20210;-85
2023/10/04 10:48:01;;;;;;;19.30;10.00;;;;;;;-143.21;28.39;70755.72;5133970;27;20202;-84
2023/10/04 10:50:34;;;;;;;13.07;7.85;;;;;;;-143.21;28.79;70722.03;5132482;27;20223;-84
2023/10/04 10:53:06;;;;;;;15.75;8.77;;;;;;;-143.21;28.34;70702.19;5130944;27;20685;-83
2023/10/04 10:55:34;;;;;;;18.20;8.80;;;;;;;-143.21;27.92;70660.56;5115063;27;20685;-84
2023/10/04 10:58:01;;;;;;;13.35;8.30;;;;;;;-143.21;27.54;70648.69;5133059;27;20203;-84
2023/10/04 11:00:32;;;;;;;14.93;9.63;;;;;;;-143.21;27.15;70630.84;5133322;27;20210;-85
2023/10/04 11:03:00;;;;;;;11.85;7.68;;;;;;;-143.21;27.77;70624.88;5133477;27;20270;-84
2023/10/04 11:05:28;;;;;;;16.05;7.85;;;;;;;-143.21;27.56;70607.06;5133293;27;20221;-83
2023/10/04 11:07:56;;;;;;;20.92;8.77;;;;;;;-143.21;26.61;70611.00;5133499;27;20361;-83
2023/10/04 11:10:25;;;;;;;11.27;7.22;;;;;;;-143.21;28.13;70589.22;5132647;27;20291;-83
2023/10/04 11:12:54;;;;;;;12.65;8.50;;;;;;;-143.21;27.33;70581.28;5150596;27;20222;-83
2023/10/04 11:15:23;;;;;;;16.95;8.30;;;;;;;-143.21;26.76;70559.47;5153614;27;20281;-82
2023/10/04 11:17:50;;;;;;;16.40;7.97;;;;;;;-143.21;27.42;70535.69;5153683;27;20661;-82
2023/10/04 11:20:21;;;;;;;14.40;8.00;;;;;;;-143.21;25.66;70507.94;5154362;27;20229;-82